sensor_id;sensor_type;location;lat;lon;timestamp;pressure;altitude;pressure_sealevel;temperature;humidity
41945;BME280;63122;52.424;13.458;2024-01-30T01:16:18;102307.94;;;1.80;100.00
41945;BME280;63122;52.424;13.458;2024-01-30T01:19:15;102307.16;;;1.78;100.00
41945;BME280;63122;52.424;13.458;2024-01-30T01:21:56;102303.03;;;1.72;100.00
41945;BME280;63122;52.424;13.458;2024-01-30T01:26:58;102303.97;;;1.69;100.00
41945;BME280;63122;52.424;13.458;2024-01-30T01:29:08;102304.78;;;1.71;100.00
41945;BME280;63122;52.424;13.458;2024-01-30T01:31:58;102308.28;;;1.70;100.00
41945;BME280;63122;52.424;13.458;2024-01-30T01:34:06;102314.28;;;1.72;100.00
41945;BME280;63122;52.424;13.458;2024-01-30T01:36:25;102313.25;;;1.77;100.00
41945;BME280;63122;52.424;13.458;2024-01-30T01:40:37;102306.38;;;1.76;100.00
41945;BME280;63122;52.424;13.458;2024-01-30T01:43:02;102306.38;;;1.76;100.00
41945;BME280;63122;52.424;13.458;2024-01-30T01:46:18;102301.28;;;1.72;100.00
41945;BME280;63122;52.424;13.458;2024-01-30T01:48:21;102302.97;;;1.73;100.00
41945;BME280;63122;52.424;13.458;2024-01-30T01:50:15;102303.84;;;1.74;100.00
41945;BME280;63122;52.424;13.458;2024-01-30T01:52:12;102304.56;;;1.78;100.00
41945;BME280;63122;52.424;13.458;2024-01-30T01:54:08;102304.66;;;1.75;100.00
41945;BME280;63122;52.424;13.458;2024-01-30T01:56:05;102303.06;;;1.70;100.00
41945;BME280;63122;52.424;13.458;2024-01-30T01:58:00;102306.53;;;1.71;100.00
41945;BME280;63122;52.424;13.458;2024-01-30T01:59:57;102300.53;;;1.69;100.00
41945;BME280;63122;52.424;13.458;2024-01-30T02:01:50;102303.88;;;1.72;100.00
41945;BME280;63122;52.424;13.458;2024-01-30T02:03:49;102301.94;;;1.78;100.00
41945;BME280;63122;52.424;13.458;2024-01-30T02:05:45;102300.22;;;1.78;100.00
41945;BME280;63122;52.424;13.458;2024-01-30T02:07:41;102294.09;;;1.79;100.00
41945;BME280;63122;52.424;13.458;2024-01-30T02:09:36;102301.00;;;1.80;100.00
41945;BME280;63122;52.424;13.458;2024-01-30T02:11:32;102303.66;;;1.79;100.00
41945;BME280;63122;52.424;13.458;2024-01-30T02:13:27;102298.41;;;1.80;100.00
41945;BME280;63122;52.424;13.458;2024-01-30T02:15:23;102297.63;;;1.78;100.00
41945;BME280;63122;52.424;13.458;2024-01-30T02:17:18;102297.63;;;1.78;100.00
41945;BME280;63122;52.424;13.458;2024-01-30T02:19:18;102295.06;;;1.77;100.00
41945;BME280;63122;52.424;13.458;2024-01-30T02:21:16;102296.81;;;1.76;100.00
41945;BME280;63122;52.424;13.458;2024-01-30T02:23:12;102297.63;;;1.78;100.00
41945;BME280;63122;52.424;13.458;2024-01-30T02:25:05;102300.25;;;1.77;100.00
41945;BME280;63122;52.424;13.458;2024-01-30T02:27:01;102296.75;;;1.78;100.00
41945;BME280;63122;52.424;13.458;2024-01-30T02:28:53;102297.75;;;1.73;100.00
41945;BME280;63122;52.424;13.458;2024-01-30T02:30:49;102300.53;;;1.69;100.00
41945;BME280;63122;52.424;13.458;2024-01-30T02:32:44;102294.50;;;1.67;100.00
41945;BME280;63122;52.424;13.458;2024-01-30T02:34:40;102298.13;;;1.63;100.00
41945;BME280;63122;52.424;13.458;2024-01-30T02:36:37;102300.72;;;1.63;100.00
41945;BME280;63122;52.424;13.458;2024-01-30T02:38:30;102296.31;;;1.65;100.00
41945;BME280;63122;52.424;13.458;2024-01-30T02:40:25;102298.03;;;1.66;100.00
41945;BME280;63122;52.424;13.458;2024-01-30T02:42:18;102300.63;;;1.66;100.00
41945;BME280;63122;52.424;13.458;2024-01-30T02:44:14;102299.84;;;1.64;100.00
41945;BME280;63122;52.424;13.458;2024-01-30T02:46:07;102293.78;;;1.63;100.00
41945;BME280;63122;52.424;13.458;2024-01-30T02:48:03;102287.84;;;1.60;100.00
41945;BME280;63122;52.424;13.458;2024-01-30T02:49:59;102293.84;;;1.62;100.00
41945;BME280;63122;52.424;13.458;2024-01-30T02:51:57;102288.63;;;1.62;100.00
41945;BME280;63122;52.424;13.458;2024-01-30T02:53:53;102289.75;;;1.54;100.00
41945;BME280;63122;52.424;13.458;2024-01-30T02:55:48;102295.06;;;1.51;100.00
41945;BME280;63122;52.424;13.458;2024-01-30T02:57:44;102295.00;;;1.53;100.00
41945;BME280;63122;52.424;13.458;2024-01-30T02:59:39;102294.19;;;1.51;100.00
41945;BME280;63122;52.424;13.458;2024-01-30T03:01:42;102287.38;;;1.48;100.00
41945;BME280;63122;52.424;13.458;2024-01-30T03:03:35;102285.72;;;1.46;100.00
41945;BME280;63122;52.424;13.458;2024-01-30T03:05:30;102290.97;;;1.44;100.00
41945;BME280;63122;52.424;13.458;2024-01-30T03:07:28;102285.78;;;1.44;100.00
41945;BME280;63122;52.424;13.458;2024-01-30T03:09:24;102284.13;;;1.41;100.00
41945;BME280;63122;52.424;13.458;2024-01-30T03:11:22;102280.56;;;1.44;100.00
41945;BME280;63122;52.424;13.458;2024-01-30T03:13:18;102280.56;;;1.44;100.00
41945;BME280;63122;52.424;13.458;2024-01-30T03:15:11;102278.91;;;1.41;100.00
41945;BME280;63122;52.424;13.458;2024-01-30T03:17:07;102268.59;;;1.40;100.00
41945;BME280;63122;52.424;13.458;2024-01-30T03:19:02;102274.75;;;1.36;100.00
41945;BME280;63122;52.424;13.458;2024-01-30T03:20:59;102272.16;;;1.36;100.00
41945;BME280;63122;52.424;13.458;2024-01-30T03:22:57;102276.56;;;1.34;100.00
41945;BME280;63122;52.424;13.458;2024-01-30T03:24:50;102280.19;;;1.29;100.00
41945;BME280;63122;52.424;13.458;2024-01-30T03:26:45;102277.69;;;1.26;100.00
41945;BME280;63122;52.424;13.458;2024-01-30T03:28:41;102273.38;;;1.25;100.00
41945;BME280;63122;52.424;13.458;2024-01-30T03:30:34;102271.69;;;1.24;100.00
41945;BME280;63122;52.424;13.458;2024-01-30T03:32:30;102273.38;;;1.25;100.00
41945;BME280;63122;52.424;13.458;2024-01-30T03:34:25;102268.28;;;1.22;100.00
41945;BME280;63122;52.424;13.458;2024-01-30T03:36:21;102269.91;;;1.25;100.00
41945;BME280;63122;52.424;13.458;2024-01-30T03:38:19;102275.97;;;1.25;100.00
41945;BME280;63122;52.424;13.458;2024-01-30T03:40:14;102268.16;;;1.27;100.00
41945;BME280;63122;52.424;13.458;2024-01-30T03:42:09;102275.03;;;1.28;100.00
41945;BME280;63122;52.424;13.458;2024-01-30T03:44:06;102266.47;;;1.24;100.00
41945;BME280;63122;52.424;13.458;2024-01-30T03:46:01;102273.38;;;1.25;100.00
41945;BME280;63122;52.424;13.458;2024-01-30T03:47:54;102271.59;;;1.27;100.00
41945;BME280;63122;52.424;13.458;2024-01-30T03:49:50;102264.53;;;1.31;100.00
41945;BME280;63122;52.424;13.458;2024-01-30T03:51:46;102271.38;;;1.34;100.00
41945;BME280;63122;52.424;13.458;2024-01-30T03:54:16;102265.34;;;1.33;100.00
41945;BME280;63122;52.424;13.458;2024-01-30T03:56:35;102267.88;;;1.35;100.00
41945;BME280;63122;52.424;13.458;2024-01-30T03:58:31;102267.94;;;1.33;100.00
41945;BME280;63122;52.424;13.458;2024-01-30T04:00:25;102272.28;;;1.33;100.00
41945;BME280;63122;52.424;13.458;2024-01-30T04:02:20;102258.47;;;1.31;100.00
41945;BME280;63122;52.424;13.458;2024-01-30T04:04:16;102262.88;;;1.28;100.00
41945;BME280;63122;52.424;13.458;2024-01-30T04:06:10;102274.16;;;1.29;100.00
41945;BME280;63122;52.424;13.458;2024-01-30T04:08:06;102267.13;;;1.31;100.00
41945;BME280;63122;52.424;13.458;2024-01-30T04:10:06;102265.25;;;1.35;100.00
41945;BME280;63122;52.424;13.458;2024-01-30T04:11:59;102266.06;;;1.37;100.00
41945;BME280;63122;52.424;13.458;2024-01-30T04:13:55;102261.72;;;1.37;100.00
41945;BME280;63122;52.424;13.458;2024-01-30T04:15:48;102265.16;;;1.38;100.00
41945;BME280;63122;52.424;13.458;2024-01-30T04:17:44;102268.63;;;1.38;100.00
41945;BME280;63122;52.424;13.458;2024-01-30T04:19:39;102272.13;;;1.37;100.00
41945;BME280;63122;52.424;13.458;2024-01-30T04:21:32;102271.25;;;1.37;100.00
41945;BME280;63122;52.424;13.458;2024-01-30T04:23:27;102273.78;;;1.40;100.00
41945;BME280;63122;52.424;13.458;2024-01-30T04:25:23;102266.78;;;1.42;100.00
41945;BME280;63122;52.424;13.458;2024-01-30T04:27:18;102268.41;;;1.44;100.00
41945;BME280;63122;52.424;13.458;2024-01-30T04:29:16;102263.19;;;1.44;100.00
41945;BME280;63122;52.424;13.458;2024-01-30T04:31:12;102266.72;;;1.43;100.00
41945;BME280;63122;52.424;13.458;2024-01-30T04:33:05;102264.97;;;1.44;100.00
41945;BME280;63122;52.424;13.458;2024-01-30T04:35:01;102263.28;;;1.43;100.00
41945;BME280;63122;52.424;13.458;2024-01-30T04:36:56;102257.97;;;1.46;100.00
41945;BME280;63122;52.424;13.458;2024-01-30T04:38:52;102261.41;;;1.47;100.00
41945;BME280;63122;52.424;13.458;2024-01-30T04:40:47;102261.34;;;1.48;100.00
41945;BME280;63122;52.424;13.458;2024-01-30T04:42:43;102253.66;;;1.45;100.00
41945;BME280;63122;52.424;13.458;2024-01-30T04:44:53;102258.00;;;1.44;100.00
41945;BME280;63122;52.424;13.458;2024-01-30T04:47:29;102257.22;;;1.42;100.00
41945;BME280;63122;52.424;13.458;2024-01-30T04:49:25;102262.38;;;1.44;100.00
41945;BME280;63122;52.424;13.458;2024-01-30T04:51:21;102253.59;;;1.47;100.00
41945;BME280;63122;52.424;13.458;2024-01-30T04:53:14;102257.97;;;1.46;100.00
41945;BME280;63122;52.424;13.458;2024-01-30T04:55:10;102250.19;;;1.44;100.00
41945;BME280;63122;52.424;13.458;2024-01-30T04:57:05;102250.19;;;1.44;100.00
41945;BME280;63122;52.424;13.458;2024-01-30T04:59:04;102249.41;;;1.42;100.00
41945;BME280;63122;52.424;13.458;2024-01-30T05:01:01;102251.91;;;1.46;100.00
41945;BME280;63122;52.424;13.458;2024-01-30T05:02:57;102263.09;;;1.48;100.00
41945;BME280;63122;52.424;13.458;2024-01-30T05:04:52;102256.16;;;1.48;100.00
41945;BME280;63122;52.424;13.458;2024-01-30T05:06:45;102263.06;;;1.49;100.00
41945;BME280;63122;52.424;13.458;2024-01-30T05:08:41;102260.44;;;1.49;100.00
41945;BME280;63122;52.424;13.458;2024-01-30T05:10:36;102257.00;;;1.49;100.00
41945;BME280;63122;52.424;13.458;2024-01-30T05:12:34;102266.50;;;1.50;100.00
41945;BME280;63122;52.424;13.458;2024-01-30T05:14:29;102259.59;;;1.49;100.00
41945;BME280;63122;52.424;13.458;2024-01-30T05:16:22;102265.66;;;1.49;100.00
41945;BME280;63122;52.424;13.458;2024-01-30T05:18:18;102262.38;;;1.44;100.00
41945;BME280;63122;52.424;13.458;2024-01-30T05:20:12;102262.53;;;1.39;100.00
41945;BME280;63122;52.424;13.458;2024-01-30T05:22:08;102264.25;;;1.39;100.00
41945;BME280;63122;52.424;13.458;2024-01-30T05:24:01;102261.66;;;1.39;100.00
41945;BME280;63122;52.424;13.458;2024-01-30T05:25:57;102256.53;;;1.37;100.00
41945;BME280;63122;52.424;13.458;2024-01-30T05:27:52;102264.44;;;1.34;100.00
41945;BME280;63122;52.424;13.458;2024-01-30T05:29:47;102262.78;;;1.32;100.00
41945;BME280;63122;52.424;13.458;2024-01-30T05:31:40;102262.78;;;1.32;100.00
41945;BME280;63122;52.424;13.458;2024-01-30T05:33:36;102264.56;;;1.29;100.00
41945;BME280;63122;52.424;13.458;2024-01-30T05:35:29;102262.88;;;1.28;100.00
41945;BME280;63122;52.424;13.458;2024-01-30T05:37:24;102259.44;;;1.28;100.00
41945;BME280;63122;52.424;13.458;2024-01-30T05:39:20;102270.00;;;1.23;100.00
41945;BME280;63122;52.424;13.458;2024-01-30T05:41:15;102262.94;;;1.27;100.00
41945;BME280;63122;52.424;13.458;2024-01-30T05:43:15;102259.34;;;1.31;100.00
41945;BME280;63122;52.424;13.458;2024-01-30T05:45:10;102261.97;;;1.29;100.00
41945;BME280;63122;52.424;13.458;2024-01-30T05:47:03;102251.56;;;1.29;100.00
41945;BME280;63122;52.424;13.458;2024-01-30T05:48:59;102258.47;;;1.31;100.00
41945;BME280;63122;52.424;13.458;2024-01-30T05:50:52;102256.78;;;1.29;100.00
41945;BME280;63122;52.424;13.458;2024-01-30T05:52:47;102251.47;;;1.33;100.00
41945;BME280;63122;52.424;13.458;2024-01-30T05:54:43;102250.56;;;1.34;100.00
41945;BME280;63122;52.424;13.458;2024-01-30T05:56:36;102249.66;;;1.35;100.00
41945;BME280;63122;52.424;13.458;2024-01-30T05:58:34;102248.94;;;1.31;100.00
41945;BME280;63122;52.424;13.458;2024-01-30T06:00:29;102248.19;;;1.27;100.00
41945;BME280;63122;52.424;13.458;2024-01-30T06:02:22;102250.84;;;1.26;100.00
41945;BME280;63122;52.424;13.458;2024-01-30T06:04:17;102249.97;;;1.25;100.00
41945;BME280;63122;52.424;13.458;2024-01-30T06:06:13;102252.59;;;1.25;100.00
41945;BME280;63122;52.424;13.458;2024-01-30T06:08:11;102251.72;;;1.25;100.00
41945;BME280;63122;52.424;13.458;2024-01-30T06:10:08;102248.41;;;1.21;100.00
41945;BME280;63122;52.424;13.458;2024-01-30T06:12:05;102256.19;;;1.21;100.00
41945;BME280;63122;52.424;13.458;2024-01-30T06:14:03;102257.25;;;1.15;100.00
41945;BME280;63122;52.424;13.458;2024-01-30T06:15:59;102247.69;;;1.16;100.00
41945;BME280;63122;52.424;13.458;2024-01-30T06:24:17;102253.38;;;1.27;100.00
41945;BME280;63122;52.424;13.458;2024-01-30T06:44:15;102236.09;;;1.26;100.00
41945;BME280;63122;52.424;13.458;2024-01-30T06:50:03;102238.66;;;1.28;100.00
41945;BME280;63122;52.424;13.458;2024-01-30T06:52:34;102234.34;;;1.27;100.00
41945;BME280;63122;52.424;13.458;2024-01-30T06:54:49;102242.72;;;1.35;100.00
41945;BME280;63122;52.424;13.458;2024-01-30T06:57:15;102245.38;;;1.34;100.00
41945;BME280;63122;52.424;13.458;2024-01-30T07:06:08;102250.47;;;1.37;100.00
41945;BME280;63122;52.424;13.458;2024-01-30T07:08:52;102245.09;;;1.41;100.00
41945;BME280;63122;52.424;13.458;2024-01-30T07:11:37;102239.06;;;1.41;100.00
41945;BME280;63122;52.424;13.458;2024-01-30T07:14:18;102244.16;;;1.44;100.00
41945;BME280;63122;52.424;13.458;2024-01-30T07:22:44;102249.06;;;1.52;100.00
41945;BME280;63122;52.424;13.458;2024-01-30T07:25:48;102245.63;;;1.51;100.00
41945;BME280;63122;52.424;13.458;2024-01-30T07:51:13;102230.06;;;1.50;100.00
41945;BME280;63122;52.424;13.458;2024-01-30T07:53:36;102235.28;;;1.50;100.00
41945;BME280;63122;52.424;13.458;2024-01-30T07:56:05;102233.53;;;1.50;100.00
41945;BME280;63122;52.424;13.458;2024-01-30T07:58:34;102241.34;;;1.50;100.00
41945;BME280;63122;52.424;13.458;2024-01-30T08:04:16;102243.06;;;1.50;100.00
41945;BME280;63122;52.424;13.458;2024-01-30T08:06:23;102238.75;;;1.50;100.00
41945;BME280;63122;52.424;13.458;2024-01-30T08:08:30;102233.44;;;1.53;100.00
41945;BME280;63122;52.424;13.458;2024-01-30T08:10:42;102233.44;;;1.53;100.00
41945;BME280;63122;52.424;13.458;2024-01-30T08:13:08;102242.78;;;1.59;100.00
41945;BME280;63122;52.424;13.458;2024-01-30T08:15:41;102238.25;;;1.64;100.00
41945;BME280;63122;52.424;13.458;2024-01-30T08:21:07;102233.81;;;1.68;100.00
41945;BME280;63122;52.424;13.458;2024-01-30T08:24:14;102229.03;;;1.79;100.00
41945;BME280;63122;52.424;13.458;2024-01-30T08:29:40;102218.25;;;1.90;100.00
41945;BME280;63122;52.424;13.458;2024-01-30T08:32:43;102212.91;;;1.93;100.00
41945;BME280;63122;52.424;13.458;2024-01-30T08:35:22;102209.47;;;1.93;100.00
41945;BME280;63122;52.424;13.458;2024-01-30T08:41:21;102215.41;;;1.96;100.00
41945;BME280;63122;52.424;13.458;2024-01-30T08:43:53;102207.44;;;2.01;100.00
41945;BME280;63122;52.424;13.458;2024-01-30T08:46:18;102208.16;;;2.05;100.00
41945;BME280;63122;52.424;13.458;2024-01-30T08:48:16;102204.47;;;2.10;100.00
41945;BME280;63122;52.424;13.458;2024-01-30T08:50:36;102203.44;;;2.14;100.00
41945;BME280;63122;52.424;13.458;2024-01-30T08:53:42;102208.31;;;2.24;100.00
41945;BME280;63122;52.424;13.458;2024-01-30T08:56:40;102205.47;;;2.30;100.00
41945;BME280;63122;52.424;13.458;2024-01-30T09:06:16;102213.81;;;2.61;100.00
41945;BME280;63122;52.424;13.458;2024-01-30T09:08:43;102209.16;;;2.69;100.00
41945;BME280;63122;52.424;13.458;2024-01-30T09:12:05;102208.00;;;2.76;100.00
41945;BME280;63122;52.424;13.458;2024-01-30T09:14:29;102199.09;;;2.82;100.00
41945;BME280;63122;52.424;13.458;2024-01-30T09:17:07;102205.72;;;2.89;100.00
41945;BME280;63122;52.424;13.458;2024-01-30T09:19:45;102211.56;;;2.96;100.00
41945;BME280;63122;52.424;13.458;2024-01-30T09:22:34;102214.66;;;3.04;100.00
41945;BME280;63122;52.424;13.458;2024-01-30T09:25:16;102210.88;;;3.11;100.00
41945;BME280;63122;52.424;13.458;2024-01-30T09:31:31;102216.38;;;3.26;100.00
41945;BME280;63122;52.424;13.458;2024-01-30T09:33:33;102219.56;;;3.33;100.00
41945;BME280;63122;52.424;13.458;2024-01-30T09:35:32;102218.44;;;3.38;100.00
41945;BME280;63122;52.424;13.458;2024-01-30T09:37:31;102212.13;;;3.44;100.00
41945;BME280;63122;52.424;13.458;2024-01-30T09:39:28;102210.94;;;3.51;100.00
41945;BME280;63122;52.424;13.458;2024-01-30T09:41:29;102212.50;;;3.55;100.00
41945;BME280;63122;52.424;13.458;2024-01-30T09:43:30;102205.28;;;3.60;100.00
41945;BME280;63122;52.424;13.458;2024-01-30T09:45:26;102205.06;;;3.67;100.00
41945;BME280;63122;52.424;13.458;2024-01-30T09:47:22;102199.59;;;3.71;100.00
41945;BME280;63122;52.424;13.458;2024-01-30T09:49:18;102209.78;;;3.78;100.00
41945;BME280;63122;52.424;13.458;2024-01-30T09:51:14;102202.66;;;3.81;100.00
41945;BME280;63122;52.424;13.458;2024-01-30T09:53:11;102205.84;;;3.88;100.00
41945;BME280;63122;52.424;13.458;2024-01-30T09:55:06;102205.69;;;3.91;100.00
41945;BME280;63122;52.424;13.458;2024-01-30T09:57:05;102208.09;;;3.96;100.00
41945;BME280;63122;52.424;13.458;2024-01-30T09:59:00;102204.44;;;4.00;100.00
41945;BME280;63122;52.424;13.458;2024-01-30T10:01:01;102205.84;;;4.07;100.00
41945;BME280;63122;52.424;13.458;2024-01-30T10:02:57;102199.47;;;4.13;100.00
41945;BME280;63122;52.424;13.458;2024-01-30T10:04:53;102203.50;;;4.20;100.00
41945;BME280;63122;52.424;13.458;2024-01-30T10:06:51;102201.44;;;4.27;100.00
41945;BME280;63122;52.424;13.458;2024-01-30T10:08:45;102204.53;;;4.35;100.00
41945;BME280;63122;52.424;13.458;2024-01-30T10:10:41;102197.25;;;4.42;100.00
41945;BME280;63122;52.424;13.458;2024-01-30T10:12:42;102195.13;;;4.50;100.00
41945;BME280;63122;52.424;13.458;2024-01-30T10:14:38;102196.59;;;4.56;100.00
41945;BME280;63122;52.424;13.458;2024-01-30T10:16:40;102194.44;;;4.64;100.00
41945;BME280;63122;52.424;13.458;2024-01-30T10:18:33;102193.22;;;4.71;100.00
41945;BME280;63122;52.424;13.458;2024-01-30T10:20:30;102181.59;;;4.77;100.00
41945;BME280;63122;52.424;13.458;2024-01-30T10:22:27;102189.91;;;4.85;100.00
41945;BME280;63122;52.424;13.458;2024-01-30T10:24:42;102189.63;;;4.92;100.00
41945;BME280;63122;52.424;13.458;2024-01-30T10:26:54;102186.59;;;4.99;100.00
41945;BME280;63122;52.424;13.458;2024-01-30T10:29:27;102182.78;;;5.07;100.00
41945;BME280;63122;52.424;13.458;2024-01-30T10:33:41;102176.84;;;5.21;100.00
41945;BME280;63122;52.424;13.458;2024-01-30T10:35:41;102175.66;;;5.26;100.00
41945;BME280;63122;52.424;13.458;2024-01-30T10:37:38;102179.66;;;5.33;100.00
41945;BME280;63122;52.424;13.458;2024-01-30T10:39:38;102174.25;;;5.37;100.00
41945;BME280;63122;52.424;13.458;2024-01-30T10:41:39;102173.16;;;5.41;100.00
41945;BME280;63122;52.424;13.458;2024-01-30T10:43:41;102177.16;;;5.48;100.00
41945;BME280;63122;52.424;13.458;2024-01-30T10:45:44;102182.06;;;5.54;100.00
41945;BME280;63122;52.424;13.458;2024-01-30T10:47:48;102165.28;;;5.58;100.00
41945;BME280;63122;52.424;13.458;2024-01-30T10:49:42;102173.97;;;5.59;100.00
41945;BME280;63122;52.424;13.458;2024-01-30T10:51:40;102176.34;;;5.64;100.00
41945;BME280;63122;52.424;13.458;2024-01-30T10:53:38;102178.69;;;5.68;100.00
41945;BME280;63122;52.424;13.458;2024-01-30T10:55:36;102174.16;;;5.72;100.00
41945;BME280;63122;52.424;13.458;2024-01-30T10:57:34;102168.56;;;5.78;100.00
41945;BME280;63122;52.424;13.458;2024-01-30T10:59:27;102180.50;;;5.84;100.00
41945;BME280;63122;52.424;13.458;2024-01-30T11:01:28;102176.88;;;5.86;100.00
41945;BME280;63122;52.424;13.458;2024-01-30T11:03:21;102168.75;;;5.91;100.00
41945;BME280;63122;52.424;13.458;2024-01-30T11:05:25;102172.88;;;5.95;100.00
41945;BME280;63122;52.424;13.458;2024-01-30T11:07:29;102172.72;;;5.98;100.00
41945;BME280;63122;52.424;13.458;2024-01-30T11:09:29;102170.88;;;6.00;100.00
41945;BME280;63122;52.424;13.458;2024-01-30T11:12:01;102175.28;;;6.00;100.00
41945;BME280;63122;52.424;13.458;2024-01-30T11:15:12;102172.50;;;6.03;100.00
41945;BME280;63122;52.424;13.458;2024-01-30T11:17:56;102174.03;;;6.07;100.00
41945;BME280;63122;52.424;13.458;2024-01-30T11:20:31;102166.09;;;6.09;100.00
41945;BME280;63122;52.424;13.458;2024-01-30T11:22:30;102168.38;;;6.15;100.00
41945;BME280;63122;52.424;13.458;2024-01-30T11:24:36;102159.41;;;6.19;100.00
41945;BME280;63122;52.424;13.458;2024-01-30T11:26:44;102163.63;;;6.22;100.00
41945;BME280;63122;52.424;13.458;2024-01-30T11:28:57;102158.28;;;6.23;100.00
41945;BME280;63122;52.424;13.458;2024-01-30T11:31:03;102151.03;;;6.28;100.00
41945;BME280;63122;52.424;13.458;2024-01-30T11:33:10;102149.91;;;6.32;100.00
41945;BME280;63122;52.424;13.458;2024-01-30T11:35:28;102150.50;;;6.38;100.00
41945;BME280;63122;52.424;13.458;2024-01-30T11:37:39;102151.16;;;6.41;100.00
41945;BME280;63122;52.424;13.458;2024-01-30T11:39:36;102156.41;;;6.41;100.00
41945;BME280;63122;52.424;13.458;2024-01-30T11:41:34;102153.63;;;6.44;100.00
41945;BME280;63122;52.424;13.458;2024-01-30T11:43:53;102149.72;;;6.52;100.00
41945;BME280;63122;52.424;13.458;2024-01-30T11:46:11;102151.22;;;6.56;100.00
41945;BME280;63122;52.424;13.458;2024-01-30T11:48:44;102150.28;;;6.57;100.00
41945;BME280;63122;52.424;13.458;2024-01-30T11:50:52;102148.41;;;6.59;100.00
41945;BME280;63122;52.424;13.458;2024-01-30T11:53:22;102158.53;;;6.65;100.00
41945;BME280;63122;52.424;13.458;2024-01-30T11:55:30;102154.81;;;6.69;100.00
41945;BME280;63122;52.424;13.458;2024-01-30T11:57:59;102151.16;;;6.72;100.00
41945;BME280;63122;52.424;13.458;2024-01-30T12:00:22;102151.84;;;6.75;100.00
41945;BME280;63122;52.424;13.458;2024-01-30T12:02:32;102140.31;;;6.78;100.00
41945;BME280;63122;52.424;13.458;2024-01-30T12:05:07;102141.25;;;6.77;100.00
41945;BME280;63122;52.424;13.458;2024-01-30T12:07:04;102141.16;;;6.79;100.00
41945;BME280;63122;52.424;13.458;2024-01-30T12:09:04;102140.97;;;6.82;100.00
41945;BME280;63122;52.424;13.458;2024-01-30T12:11:01;102133.69;;;6.87;100.00
41945;BME280;63122;52.424;13.458;2024-01-30T12:13:01;102144.66;;;6.94;100.00
41945;BME280;63122;52.424;13.458;2024-01-30T12:14:58;102129.75;;;6.94;100.00
41945;BME280;63122;52.424;13.458;2024-01-30T12:16:54;102127.88;;;6.96;100.00
41945;BME280;63122;52.424;13.458;2024-01-30T12:18:59;102120.84;;;6.97;100.00
41945;BME280;63122;52.424;13.458;2024-01-30T12:20:59;102122.72;;;6.95;100.00
41945;BME280;63122;52.424;13.458;2024-01-30T12:22:56;102133.22;;;6.95;100.00
41945;BME280;63122;52.424;13.458;2024-01-30T12:24:50;102127.13;;;6.94;100.00
41945;BME280;63122;52.424;13.458;2024-01-30T12:26:47;102133.13;;;6.96;100.00
41945;BME280;63122;52.424;13.458;2024-01-30T12:28:49;102120.59;;;7.01;100.00
41945;BME280;63122;52.424;13.458;2024-01-30T12:30:46;102125.72;;;7.03;100.00
41945;BME280;63122;52.424;13.458;2024-01-30T12:32:44;102123.78;;;7.06;100.00
41945;BME280;63122;52.424;13.458;2024-01-30T12:34:41;102120.84;;;7.11;100.00
41945;BME280;63122;52.424;13.458;2024-01-30T12:36:55;102113.47;;;7.18;100.00
41945;BME280;63122;52.424;13.458;2024-01-30T12:38:50;102106.72;;;7.28;100.00
41945;BME280;63122;52.424;13.458;2024-01-30T12:40:47;102095.72;;;7.36;100.00
41945;BME280;63122;52.424;13.458;2024-01-30T12:42:46;102092.63;;;7.44;100.00
41945;BME280;63122;52.424;13.458;2024-01-30T12:44:44;102094.66;;;7.53;100.00
41945;BME280;63122;52.424;13.458;2024-01-30T12:46:40;102085.97;;;7.53;100.00
41945;BME280;63122;52.424;13.458;2024-01-30T12:48:41;102082.47;;;7.52;100.00
41945;BME280;63122;52.424;13.458;2024-01-30T12:50:38;102085.97;;;7.53;100.00
41945;BME280;63122;52.424;13.458;2024-01-30T12:55:32;102075.63;;;7.64;100.00
41945;BME280;63122;52.424;13.458;2024-01-30T12:57:30;102075.66;;;7.77;100.00
41945;BME280;63122;52.424;13.458;2024-01-30T12:59:25;102073.84;;;7.92;100.00
41945;BME280;63122;52.424;13.458;2024-01-30T13:01:22;102076.44;;;8.06;100.00
41945;BME280;63122;52.424;13.458;2024-01-30T13:03:18;102067.50;;;8.22;100.00
41945;BME280;63122;52.424;13.458;2024-01-30T13:05:30;102072.28;;;8.30;100.00
41945;BME280;63122;52.424;13.458;2024-01-30T13:07:38;102072.59;;;8.25;100.00
41945;BME280;63122;52.424;13.458;2024-01-30T13:09:46;102075.53;;;8.20;100.00
41945;BME280;63122;52.424;13.458;2024-01-30T13:11:56;102065.00;;;8.20;100.00
41945;BME280;63122;52.424;13.458;2024-01-30T14:06:32;102057.97;;;7.66;100.00
41945;BME280;63122;52.424;13.458;2024-01-30T14:08:30;102048.22;;;7.68;100.00
41945;BME280;63122;52.424;13.458;2024-01-30T14:10:26;102051.59;;;7.70;100.00
41945;BME280;63122;52.424;13.458;2024-01-30T14:12:23;102051.50;;;7.72;100.00
41945;BME280;63122;52.424;13.458;2024-01-30T14:14:18;102046.16;;;7.73;100.00
41945;BME280;63122;52.424;13.458;2024-01-30T14:16:14;102046.88;;;7.75;100.00
41945;BME280;63122;52.424;13.458;2024-01-30T14:18:07;102046.88;;;7.75;100.00
41945;BME280;63122;52.424;13.458;2024-01-30T14:20:05;102048.56;;;7.76;100.00
41945;BME280;63122;52.424;13.458;2024-01-30T14:22:04;102045.75;;;7.80;100.00
41945;BME280;63122;52.424;13.458;2024-01-30T14:23:59;102049.97;;;7.82;100.00
41945;BME280;63122;52.424;13.458;2024-01-30T14:25:55;102049.53;;;7.75;100.00
41945;BME280;63122;52.424;13.458;2024-01-30T14:27:51;102042.59;;;7.74;100.00
41945;BME280;63122;52.424;13.458;2024-01-30T14:29:44;102049.91;;;7.69;100.00